createdAt,value
2022-10-18T00:01:08.189Z,16.01
2022-10-18T00:06:08.199Z,15.66
2022-10-18T00:11:08.158Z,15.48
2022-10-18T00:16:07.881Z,15.76
2022-10-18T00:21:07.978Z,16.16
2022-10-18T00:26:07.824Z,16.07
2022-10-18T00:31:07.802Z,16.15
2022-10-18T00:36:07.673Z,16.20
2022-10-18T00:41:07.949Z,16.37
2022-10-18T00:46:10.553Z,15.84
2022-10-18T00:51:07.574Z,15.54
2022-10-18T00:56:08.043Z,15.72
2022-10-18T01:01:07.258Z,15.82
2022-10-18T01:07:25.167Z,16.45
2022-10-18T01:21:22.925Z,15.66
2022-10-18T01:26:22.754Z,15.79
2022-10-18T01:31:22.766Z,16.40
2022-10-18T01:36:22.533Z,16.35
2022-10-18T01:51:13.755Z,15.63
2022-10-18T01:56:13.409Z,16.15
2022-10-18T02:01:14.707Z,15.86
2022-10-18T02:11:32.289Z,15.70
2022-10-18T02:20:49.184Z,15.75
2022-10-18T02:25:48.742Z,15.70
2022-10-18T02:30:48.798Z,15.81
2022-10-18T02:35:48.543Z,15.96
2022-10-18T02:40:48.537Z,15.88
2022-10-18T02:53:47.097Z,16.58
2022-10-18T02:58:46.941Z,16.74
2022-10-18T03:03:47.223Z,16.77
2022-10-18T03:08:46.646Z,16.71
2022-10-18T03:13:46.655Z,16.85
2022-10-18T03:18:46.715Z,16.77
2022-10-18T03:23:46.602Z,16.85
2022-10-18T03:28:46.495Z,16.48
2022-10-18T03:33:46.620Z,16.11
2022-10-18T03:38:46.271Z,16.37
2022-10-18T03:43:49.345Z,16.85
2022-10-18T03:48:46.082Z,16.63
2022-10-18T03:53:46.008Z,16.83
2022-10-18T03:58:46.241Z,16.83
2022-10-18T04:20:25.456Z,16.81
2022-10-18T04:25:24.276Z,17.03
2022-10-18T04:30:24.246Z,17.00
2022-10-18T04:35:24.311Z,16.92
2022-10-18T04:40:24.689Z,16.98
2022-10-18T04:45:23.962Z,16.85
2022-10-18T04:50:23.905Z,16.41
2022-10-18T04:55:23.821Z,16.88
2022-10-18T05:00:25.161Z,16.45
2022-10-18T05:05:29.633Z,16.55
2022-10-18T05:10:27.786Z,16.92
2022-10-18T05:15:23.576Z,16.68
2022-10-18T05:20:23.666Z,16.71
2022-10-18T05:25:23.526Z,16.93
2022-10-18T05:30:24.576Z,16.93
2022-10-18T05:35:23.224Z,16.71
2022-10-18T05:41:44.111Z,17.07
2022-10-18T05:46:44.113Z,16.83
2022-10-18T05:51:44.422Z,16.78
2022-10-18T05:56:43.748Z,17.10
2022-10-18T06:18:14.603Z,16.88
2022-10-18T06:23:14.293Z,16.68
2022-10-18T06:28:14.356Z,16.90
2022-10-18T07:19:31.666Z,17.25
2022-10-18T07:24:30.781Z,16.92
2022-10-18T07:29:39.131Z,17.33
2022-10-18T07:34:37.547Z,17.69
2022-10-18T07:39:30.558Z,17.53
2022-10-18T07:44:30.415Z,17.62
2022-10-18T07:49:30.506Z,17.50
2022-10-18T07:54:30.276Z,17.22
2022-10-18T07:59:30.233Z,17.07
2022-10-18T08:04:30.279Z,17.07
2022-10-18T08:09:33.098Z,17.07
2022-10-18T08:14:30.158Z,16.93
2022-10-18T08:19:29.979Z,17.30
2022-10-18T08:24:29.847Z,17.10
2022-10-18T08:29:31.997Z,17.92
2022-10-18T08:34:29.844Z,18.22
2022-10-18T08:39:29.867Z,18.29
2022-10-18T08:44:29.607Z,18.18
2022-10-18T08:49:29.660Z,18.18
2022-10-18T08:54:29.446Z,18.36
2022-10-18T08:59:29.571Z,18.55
2022-10-18T09:04:29.341Z,18.57
2022-10-18T09:09:32.394Z,18.13
2022-10-18T09:14:29.223Z,18.15
2022-10-18T09:19:36.958Z,18.10
2022-10-18T09:24:29.112Z,18.37
2022-10-18T09:29:29.081Z,18.70
2022-10-18T09:34:28.949Z,18.74
2022-10-18T09:39:29.540Z,18.74
2022-10-18T09:44:28.918Z,18.55
2022-10-18T09:49:29.035Z,18.29
2022-10-18T09:54:28.626Z,18.44
2022-10-18T09:59:28.637Z,18.62
2022-10-18T10:04:28.624Z,18.62
2022-10-18T10:09:31.628Z,18.17
2022-10-18T10:14:28.629Z,18.40
2022-10-18T10:19:28.695Z,18.37
2022-10-18T10:24:30.452Z,18.61
2022-10-18T10:29:44.003Z,18.61
2022-10-18T10:34:29.260Z,18.39
2022-10-18T10:39:28.308Z,18.62
2022-10-18T10:44:29.649Z,18.59
2022-10-18T10:49:39.533Z,18.70
2022-10-18T10:54:29.298Z,18.68
2022-10-18T10:59:27.930Z,18.84
2022-10-18T11:04:27.903Z,18.90
2022-10-18T11:09:30.805Z,18.92
2022-10-18T11:14:27.787Z,18.61
2022-10-18T11:19:28.467Z,18.87
2022-10-18T11:24:27.431Z,18.99
2022-10-18T11:29:27.542Z,18.97
2022-10-18T11:34:27.505Z,18.40
2022-10-18T11:39:27.372Z,18.42
2022-10-18T11:44:34.588Z,18.57
2022-10-18T11:49:34.593Z,18.33
2022-10-18T11:54:27.096Z,18.39
2022-10-18T11:59:26.951Z,18.65
2022-10-18T12:04:27.044Z,18.52
2022-10-18T12:09:29.888Z,18.43
2022-10-18T12:14:34.631Z,18.59
2022-10-18T12:19:34.172Z,18.87
2022-10-18T12:24:26.902Z,18.50
2022-10-18T12:29:26.649Z,18.94
2022-10-18T12:34:33.870Z,19.39
2022-10-18T12:39:43.779Z,19.51
2022-10-18T12:44:33.348Z,19.42
2022-10-18T12:49:27.599Z,18.77
2022-10-18T12:54:26.290Z,18.64
2022-10-18T12:59:26.226Z,18.70
2022-10-18T13:04:26.158Z,18.90
2022-10-18T13:09:29.072Z,19.11
2022-10-18T13:14:26.016Z,18.47
2022-10-18T13:19:26.083Z,18.84
2022-10-18T13:24:25.865Z,18.68
2022-10-18T13:29:25.934Z,18.61
2022-10-18T13:34:25.692Z,18.94
2022-10-18T13:39:25.676Z,19.08
2022-10-18T13:44:25.665Z,18.99
2022-10-18T13:49:25.611Z,19.01
2022-10-18T13:54:25.411Z,18.90
2022-10-18T13:59:25.684Z,18.72
2022-10-18T14:04:25.308Z,18.62
2022-10-18T14:09:45.103Z,18.86
2022-10-18T14:14:26.211Z,18.59
2022-10-18T14:19:25.179Z,18.74
2022-10-18T14:24:25.019Z,18.82
2022-10-18T14:29:25.022Z,18.84
2022-10-18T14:34:24.916Z,18.90
2022-10-18T14:39:25.216Z,19.10
2022-10-18T14:44:24.766Z,19.25
2022-10-18T14:49:24.772Z,19.13
2022-10-18T14:54:27.542Z,19.23
2022-10-18T14:59:25.781Z,19.14
2022-10-18T15:04:27.891Z,19.20
2022-10-18T15:14:24.429Z,18.74
2022-10-18T15:19:24.400Z,18.95
2022-10-18T15:24:24.283Z,18.77
2022-10-18T15:29:24.207Z,18.83
2022-10-18T15:34:24.269Z,18.62
2022-10-18T15:39:24.070Z,18.73
2022-10-18T15:44:24.009Z,18.39
2022-10-18T15:49:23.909Z,18.40
2022-10-18T15:54:23.852Z,18.62
2022-10-18T15:59:23.836Z,18.47
2022-10-18T16:04:23.716Z,18.17
2022-10-18T16:09:26.729Z,18.40
2022-10-18T16:14:31.174Z,18.42
2022-10-18T16:19:31.057Z,18.77
2022-10-18T16:24:23.463Z,18.29
2022-10-18T16:29:23.334Z,17.91
2022-10-18T16:34:23.392Z,18.00
2022-10-18T16:39:23.201Z,17.92
2022-10-18T16:44:23.268Z,17.87
2022-10-18T16:49:23.141Z,17.70
2022-10-18T16:54:23.199Z,17.73
2022-10-18T16:59:22.973Z,17.92
2022-10-18T17:04:23.041Z,17.66
2022-10-18T17:09:25.941Z,17.28
2022-10-18T17:14:22.900Z,16.81
2022-10-18T17:19:22.856Z,17.15
2022-10-18T17:24:30.650Z,17.38
2022-10-18T17:29:29.557Z,17.48
2022-10-18T17:34:22.651Z,16.90
2022-10-18T17:39:22.511Z,17.04
2022-10-18T17:44:22.427Z,16.73
2022-10-18T17:49:30.158Z,16.93
2022-10-18T17:54:29.730Z,16.88
2022-10-18T17:59:22.200Z,16.22
2022-10-18T18:04:22.161Z,15.94
2022-10-18T18:09:25.307Z,15.59
2022-10-18T18:14:29.581Z,15.36
2022-10-18T18:19:29.409Z,15.68
2022-10-18T18:24:29.792Z,15.81
2022-10-18T18:29:29.269Z,15.39
2022-10-18T18:34:29.061Z,15.41
2022-10-18T18:39:21.661Z,15.23
2022-10-18T18:44:21.626Z,15.45
2022-10-18T18:49:21.502Z,14.98
2022-10-18T18:54:21.578Z,14.83
2022-10-18T18:59:21.346Z,14.78
2022-10-18T19:04:21.470Z,14.67
2022-10-18T19:09:24.236Z,14.65
2022-10-18T19:19:21.193Z,15.02
2022-10-18T19:24:21.018Z,15.30
2022-10-18T19:29:21.094Z,15.79
2022-10-18T19:34:28.960Z,15.67
2022-10-18T19:39:20.870Z,15.23
2022-10-18T19:44:20.899Z,15.23
2022-10-18T19:49:20.675Z,15.38
2022-10-18T19:54:20.961Z,15.12
2022-10-18T19:59:20.545Z,14.94
2022-10-18T20:04:20.622Z,15.21
2022-10-18T20:09:23.566Z,15.28
2022-10-18T20:14:20.366Z,15.24
2022-10-18T20:19:20.610Z,15.11
2022-10-18T20:24:20.209Z,14.90
2022-10-18T20:29:20.236Z,14.80
2022-10-18T20:34:20.066Z,14.80
2022-10-18T20:39:21.441Z,15.31
2022-10-18T20:44:27.158Z,15.21
2022-10-18T20:49:27.581Z,15.23
2022-10-18T20:54:19.890Z,15.64
2022-10-18T20:59:19.795Z,15.27
2022-10-18T21:04:19.756Z,14.74
2022-10-18T21:09:22.719Z,14.69
2022-10-18T21:14:19.698Z,14.72
2022-10-18T21:19:19.548Z,14.28
2022-10-18T21:24:19.431Z,14.09
2022-10-18T21:29:22.270Z,14.39
2022-10-18T21:34:19.286Z,14.65
2022-10-18T21:39:19.440Z,14.87
2022-10-18T21:44:19.162Z,14.91
2022-10-18T21:49:19.766Z,14.75
2022-10-18T21:54:19.050Z,13.92
2022-10-18T21:59:19.007Z,13.56
2022-10-18T22:04:18.898Z,13.74
2022-10-18T22:09:29.476Z,13.89
2022-10-18T22:14:18.911Z,13.76
2022-10-18T22:19:18.736Z,14.38
2022-10-18T22:24:18.633Z,14.60
2022-10-18T22:29:18.616Z,14.38
2022-10-18T22:34:18.531Z,13.83
2022-10-18T22:39:18.419Z,13.67
2022-10-18T22:44:26.206Z,14.09
2022-10-18T22:49:25.755Z,13.80
2022-10-18T22:54:18.926Z,13.70
2022-10-18T22:59:18.173Z,14.09
2022-10-18T23:04:25.966Z,14.14
2022-10-18T23:09:28.963Z,14.81
2022-10-18T23:14:17.931Z,14.50
2022-10-18T23:19:17.970Z,14.69
2022-10-18T23:24:17.788Z,14.78
2022-10-18T23:29:17.832Z,14.95
2022-10-18T23:34:17.779Z,15.06
2022-10-18T23:39:17.695Z,15.21
2022-10-18T23:44:17.561Z,15.24
2022-10-18T23:49:17.501Z,15.42
2022-10-18T23:54:17.681Z,15.31
2022-10-18T23:59:17.490Z,15.42
